Portada
METAR-TAF:

METAR-TAF

Aeroports :

Luganville, Illa Espíritu Santo, Vanuatu

latitud: 15-31S, longitud: 167-13E, altitud: 41 m

Observació

L'informe es va fer fa 1 hora i 31 minuts, a les 15:00 UTC
Vent calma
Temperatura 25°C
Humitat 79%
Pressió 1011 hPa
Visibilitat 10 km o més
Cel ennuvolat a una alçada de 2200 ft

METAR: NVSS 281500Z 00000KT 9999 BKN022 25/21 Q1011

Hora: 03:31 (16:31 UTC)

Pronòstic

L'informe es va fer fa 6 hores i 31 minuts, a les 10:00 UTC
Pronòstic vàlid del 28 a les 12 UTC al 29 a les 12 UTC
Vent 4 kt amb direcció variable
Visibilitat 10 km o més
Núvols disperses a una alçada de 2000 ft

TAF: NVSS 281000Z 2812/2912 VRB04KT 9999 SCT020

Observacions i pronòstics meteorològics de més de 4000 aeroports (METAR i TAF).

Les estacions disponibles són els punts grocs i vermells al mapa.

Posi el ratolí al punt desitjat per veure el nom de l'estació.

Feu clic per veure les observacions i els pronòstics meteorològics.

Per canviar el mapa: feu clic els botons verds amb una creu de color negre per apropar; al botó verd amb un guió per allunyar la imatge; o en les fletxes verdes per a mapes adjacents.


METAR-TAF: